sensor_id;sensor_type;location;lat;lon;timestamp;P1;durP1;ratioP1;P2;durP2;ratioP2
12623;SDS011;6377;42.836;23.998;2023-02-01T00:01:11;2.87;;;2.20;;
12623;SDS011;6377;42.836;23.998;2023-02-01T00:03:42;5.60;;;3.80;;
12623;SDS011;6377;42.836;23.998;2023-02-01T00:06:11;5.03;;;3.37;;
12623;SDS011;6377;42.836;23.998;2023-02-01T00:08:42;10.67;;;7.10;;
12623;SDS011;6377;42.836;23.998;2023-02-01T00:11:10;4.67;;;2.73;;
12623;SDS011;6377;42.836;23.998;2023-02-01T00:13:42;3.67;;;2.77;;
12623;SDS011;6377;42.836;23.998;2023-02-01T00:16:11;4.50;;;3.47;;
12623;SDS011;6377;42.836;23.998;2023-02-01T00:18:43;5.33;;;3.83;;
12623;SDS011;6377;42.836;23.998;2023-02-01T00:21:16;3.73;;;2.43;;
12623;SDS011;6377;42.836;23.998;2023-02-01T00:23:47;4.50;;;2.77;;
12623;SDS011;6377;42.836;23.998;2023-02-01T00:26:20;3.80;;;3.03;;
12623;SDS011;6377;42.836;23.998;2023-02-01T00:28:52;3.10;;;2.30;;
12623;SDS011;6377;42.836;23.998;2023-02-01T00:31:21;4.83;;;3.63;;
12623;SDS011;6377;42.836;23.998;2023-02-01T00:33:48;6.63;;;3.57;;
12623;SDS011;6377;42.836;23.998;2023-02-01T00:36:17;7.33;;;5.43;;
12623;SDS011;6377;42.836;23.998;2023-02-01T00:38:45;7.20;;;3.20;;
12623;SDS011;6377;42.836;23.998;2023-02-01T00:41:14;4.67;;;3.00;;
12623;SDS011;6377;42.836;23.998;2023-02-01T00:43:46;5.10;;;3.23;;
12623;SDS011;6377;42.836;23.998;2023-02-01T00:46:15;5.70;;;4.03;;
12623;SDS011;6377;42.836;23.998;2023-02-01T00:48:48;5.70;;;4.57;;
12623;SDS011;6377;42.836;23.998;2023-02-01T00:51:16;12.20;;;6.50;;
12623;SDS011;6377;42.836;23.998;2023-02-01T00:53:46;8.83;;;6.20;;
12623;SDS011;6377;42.836;23.998;2023-02-01T00:56:14;11.50;;;6.00;;
12623;SDS011;6377;42.836;23.998;2023-02-01T00:58:42;12.20;;;7.40;;
12623;SDS011;6377;42.836;23.998;2023-02-01T01:01:10;16.17;;;8.37;;
12623;SDS011;6377;42.836;23.998;2023-02-01T01:03:39;14.23;;;8.07;;
12623;SDS011;6377;42.836;23.998;2023-02-01T01:06:09;9.37;;;6.10;;
12623;SDS011;6377;42.836;23.998;2023-02-01T01:08:40;13.17;;;7.50;;
12623;SDS011;6377;42.836;23.998;2023-02-01T01:11:09;13.40;;;9.23;;
12623;SDS011;6377;42.836;23.998;2023-02-01T01:13:40;18.63;;;9.20;;
12623;SDS011;6377;42.836;23.998;2023-02-01T01:16:09;19.37;;;11.83;;
12623;SDS011;6377;42.836;23.998;2023-02-01T01:18:37;20.17;;;10.93;;
12623;SDS011;6377;42.836;23.998;2023-02-01T01:21:05;36.03;;;18.37;;
12623;SDS011;6377;42.836;23.998;2023-02-01T01:23:34;14.60;;;8.93;;
12623;SDS011;6377;42.836;23.998;2023-02-01T01:26:06;12.83;;;7.97;;
12623;SDS011;6377;42.836;23.998;2023-02-01T01:28:35;11.93;;;7.17;;
12623;SDS011;6377;42.836;23.998;2023-02-01T01:31:03;13.77;;;7.97;;
12623;SDS011;6377;42.836;23.998;2023-02-01T01:33:34;28.80;;;13.93;;
12623;SDS011;6377;42.836;23.998;2023-02-01T01:36:01;23.83;;;13.20;;
12623;SDS011;6377;42.836;23.998;2023-02-01T01:38:31;10.77;;;6.47;;
12623;SDS011;6377;42.836;23.998;2023-02-01T01:40:59;12.77;;;7.03;;
12623;SDS011;6377;42.836;23.998;2023-02-01T01:46:22;13.57;;;8.00;;
12623;SDS011;6377;42.836;23.998;2023-02-01T01:48:52;17.53;;;9.10;;
12623;SDS011;6377;42.836;23.998;2023-02-01T01:51:24;16.33;;;10.27;;
12623;SDS011;6377;42.836;23.998;2023-02-01T01:53:56;22.57;;;13.77;;
12623;SDS011;6377;42.836;23.998;2023-02-01T01:56:28;21.00;;;11.40;;
12623;SDS011;6377;42.836;23.998;2023-02-01T01:58:59;16.37;;;9.87;;
12623;SDS011;6377;42.836;23.998;2023-02-01T02:01:28;13.67;;;8.40;;
12623;SDS011;6377;42.836;23.998;2023-02-01T02:03:56;17.10;;;10.40;;
12623;SDS011;6377;42.836;23.998;2023-02-01T02:06:31;12.97;;;9.70;;
12623;SDS011;6377;42.836;23.998;2023-02-01T02:09:05;16.50;;;10.10;;
12623;SDS011;6377;42.836;23.998;2023-02-01T02:11:33;14.83;;;9.63;;
12623;SDS011;6377;42.836;23.998;2023-02-01T02:14:02;13.73;;;8.27;;
12623;SDS011;6377;42.836;23.998;2023-02-01T02:16:37;12.60;;;8.40;;
12623;SDS011;6377;42.836;23.998;2023-02-01T02:19:32;12.97;;;8.50;;
12623;SDS011;6377;42.836;23.998;2023-02-01T02:28:51;20.77;;;12.57;;
12623;SDS011;6377;42.836;23.998;2023-02-01T02:31:40;23.87;;;13.27;;
12623;SDS011;6377;42.836;23.998;2023-02-01T02:34:24;19.97;;;11.43;;
12623;SDS011;6377;42.836;23.998;2023-02-01T02:36:58;25.50;;;15.57;;
12623;SDS011;6377;42.836;23.998;2023-02-01T02:39:36;23.63;;;14.40;;
12623;SDS011;6377;42.836;23.998;2023-02-01T02:42:14;23.10;;;13.43;;
12623;SDS011;6377;42.836;23.998;2023-02-01T02:45:09;21.30;;;13.70;;
12623;SDS011;6377;42.836;23.998;2023-02-01T02:48:07;21.97;;;13.53;;
12623;SDS011;6377;42.836;23.998;2023-02-01T02:50:42;31.20;;;17.43;;
12623;SDS011;6377;42.836;23.998;2023-02-01T02:53:32;50.93;;;23.63;;
12623;SDS011;6377;42.836;23.998;2023-02-01T02:56:22;30.17;;;17.20;;
12623;SDS011;6377;42.836;23.998;2023-02-01T02:59:11;31.60;;;18.57;;
12623;SDS011;6377;42.836;23.998;2023-02-01T03:01:58;35.67;;;20.97;;
12623;SDS011;6377;42.836;23.998;2023-02-01T03:04:44;45.37;;;26.30;;
12623;SDS011;6377;42.836;23.998;2023-02-01T03:07:15;51.43;;;27.60;;
12623;SDS011;6377;42.836;23.998;2023-02-01T03:10:24;43.57;;;23.70;;
12623;SDS011;6377;42.836;23.998;2023-02-01T03:13:02;40.73;;;22.40;;
12623;SDS011;6377;42.836;23.998;2023-02-01T03:15:33;34.67;;;20.63;;
12623;SDS011;6377;42.836;23.998;2023-02-01T03:18:06;38.07;;;22.10;;
12623;SDS011;6377;42.836;23.998;2023-02-01T03:20:40;38.80;;;22.67;;
12623;SDS011;6377;42.836;23.998;2023-02-01T03:23:13;45.50;;;25.43;;
12623;SDS011;6377;42.836;23.998;2023-02-01T03:25:46;38.90;;;19.73;;
12623;SDS011;6377;42.836;23.998;2023-02-01T03:28:15;41.37;;;24.57;;
12623;SDS011;6377;42.836;23.998;2023-02-01T03:30:47;44.07;;;25.63;;
12623;SDS011;6377;42.836;23.998;2023-02-01T03:33:17;40.57;;;23.23;;
12623;SDS011;6377;42.836;23.998;2023-02-01T03:35:52;38.93;;;22.83;;
12623;SDS011;6377;42.836;23.998;2023-02-01T03:38:27;41.03;;;24.07;;
12623;SDS011;6377;42.836;23.998;2023-02-01T03:41:03;34.47;;;20.30;;
12623;SDS011;6377;42.836;23.998;2023-02-01T03:43:41;30.77;;;18.37;;
12623;SDS011;6377;42.836;23.998;2023-02-01T03:46:20;30.07;;;18.33;;
12623;SDS011;6377;42.836;23.998;2023-02-01T03:49:02;30.70;;;17.87;;
12623;SDS011;6377;42.836;23.998;2023-02-01T03:51:35;35.00;;;20.10;;
12623;SDS011;6377;42.836;23.998;2023-02-01T03:54:10;33.23;;;18.90;;
12623;SDS011;6377;42.836;23.998;2023-02-01T03:56:45;18.70;;;13.77;;
12623;SDS011;6377;42.836;23.998;2023-02-01T03:59:17;16.83;;;11.57;;
12623;SDS011;6377;42.836;23.998;2023-02-01T04:01:46;23.07;;;11.90;;
12623;SDS011;6377;42.836;23.998;2023-02-01T04:04:14;21.93;;;10.90;;
12623;SDS011;6377;42.836;23.998;2023-02-01T04:06:46;18.90;;;11.90;;
12623;SDS011;6377;42.836;23.998;2023-02-01T04:09:16;15.57;;;9.47;;
12623;SDS011;6377;42.836;23.998;2023-02-01T04:11:45;16.23;;;11.00;;
12623;SDS011;6377;42.836;23.998;2023-02-01T04:14:16;27.53;;;15.53;;
12623;SDS011;6377;42.836;23.998;2023-02-01T04:16:44;16.33;;;10.73;;
12623;SDS011;6377;42.836;23.998;2023-02-01T04:19:12;69.80;;;41.07;;
12623;SDS011;6377;42.836;23.998;2023-02-01T04:21:40;23.27;;;14.13;;
12623;SDS011;6377;42.836;23.998;2023-02-01T04:24:11;28.77;;;16.87;;
12623;SDS011;6377;42.836;23.998;2023-02-01T04:26:44;29.33;;;17.83;;
12623;SDS011;6377;42.836;23.998;2023-02-01T04:29:12;19.60;;;10.57;;
12623;SDS011;6377;42.836;23.998;2023-02-01T04:31:41;19.00;;;11.73;;
12623;SDS011;6377;42.836;23.998;2023-02-01T04:34:09;31.23;;;18.30;;
12623;SDS011;6377;42.836;23.998;2023-02-01T04:36:38;50.40;;;29.77;;
12623;SDS011;6377;42.836;23.998;2023-02-01T04:39:08;30.93;;;18.63;;
12623;SDS011;6377;42.836;23.998;2023-02-01T04:41:37;36.77;;;22.63;;
12623;SDS011;6377;42.836;23.998;2023-02-01T04:44:08;38.03;;;20.23;;
12623;SDS011;6377;42.836;23.998;2023-02-01T04:46:44;38.73;;;21.00;;
12623;SDS011;6377;42.836;23.998;2023-02-01T04:49:16;39.03;;;21.53;;
12623;SDS011;6377;42.836;23.998;2023-02-01T04:51:46;32.40;;;19.83;;
12623;SDS011;6377;42.836;23.998;2023-02-01T04:54:14;36.17;;;20.77;;
12623;SDS011;6377;42.836;23.998;2023-02-01T04:56:42;35.90;;;22.77;;
12623;SDS011;6377;42.836;23.998;2023-02-01T04:59:16;46.03;;;28.80;;
12623;SDS011;6377;42.836;23.998;2023-02-01T05:01:51;49.37;;;27.80;;
12623;SDS011;6377;42.836;23.998;2023-02-01T05:04:25;45.20;;;26.60;;
12623;SDS011;6377;42.836;23.998;2023-02-01T05:06:56;45.10;;;28.47;;
12623;SDS011;6377;42.836;23.998;2023-02-01T05:09:25;42.67;;;26.70;;
12623;SDS011;6377;42.836;23.998;2023-02-01T05:11:53;37.17;;;23.43;;
12623;SDS011;6377;42.836;23.998;2023-02-01T05:14:39;38.07;;;23.13;;
12623;SDS011;6377;42.836;23.998;2023-02-01T05:17:07;39.13;;;26.27;;
12623;SDS011;6377;42.836;23.998;2023-02-01T05:19:35;44.87;;;29.07;;
12623;SDS011;6377;42.836;23.998;2023-02-01T05:22:04;48.37;;;28.70;;
12623;SDS011;6377;42.836;23.998;2023-02-01T05:24:36;61.00;;;35.90;;
12623;SDS011;6377;42.836;23.998;2023-02-01T05:27:03;53.50;;;31.00;;
12623;SDS011;6377;42.836;23.998;2023-02-01T05:29:31;44.43;;;26.77;;
12623;SDS011;6377;42.836;23.998;2023-02-01T05:32:05;48.90;;;28.30;;
12623;SDS011;6377;42.836;23.998;2023-02-01T05:34:33;45.70;;;25.57;;
12623;SDS011;6377;42.836;23.998;2023-02-01T05:37:06;43.40;;;24.57;;
12623;SDS011;6377;42.836;23.998;2023-02-01T05:39:34;45.33;;;23.80;;
12623;SDS011;6377;42.836;23.998;2023-02-01T05:42:02;40.60;;;23.97;;
12623;SDS011;6377;42.836;23.998;2023-02-01T05:44:30;45.10;;;26.70;;
12623;SDS011;6377;42.836;23.998;2023-02-01T05:46:58;75.10;;;41.57;;
12623;SDS011;6377;42.836;23.998;2023-02-01T05:49:27;70.43;;;42.37;;
12623;SDS011;6377;42.836;23.998;2023-02-01T05:51:54;87.67;;;48.47;;
12623;SDS011;6377;42.836;23.998;2023-02-01T05:54:25;81.00;;;45.10;;
12623;SDS011;6377;42.836;23.998;2023-02-01T05:56:53;59.13;;;37.77;;
12623;SDS011;6377;42.836;23.998;2023-02-01T05:59:21;59.03;;;39.03;;
12623;SDS011;6377;42.836;23.998;2023-02-01T06:01:49;63.87;;;39.77;;
12623;SDS011;6377;42.836;23.998;2023-02-01T06:04:16;65.53;;;39.73;;
12623;SDS011;6377;42.836;23.998;2023-02-01T06:06:48;61.97;;;38.10;;
12623;SDS011;6377;42.836;23.998;2023-02-01T06:09:19;58.47;;;35.73;;
12623;SDS011;6377;42.836;23.998;2023-02-01T06:11:48;52.83;;;33.77;;
12623;SDS011;6377;42.836;23.998;2023-02-01T06:14:16;59.53;;;35.20;;
12623;SDS011;6377;42.836;23.998;2023-02-01T06:16:47;64.33;;;36.63;;
12623;SDS011;6377;42.836;23.998;2023-02-01T06:19:15;61.00;;;35.80;;
12623;SDS011;6377;42.836;23.998;2023-02-01T06:21:48;52.77;;;31.73;;
12623;SDS011;6377;42.836;23.998;2023-02-01T06:24:16;46.07;;;26.07;;
12623;SDS011;6377;42.836;23.998;2023-02-01T06:26:45;58.97;;;35.13;;
12623;SDS011;6377;42.836;23.998;2023-02-01T06:29:13;77.73;;;42.50;;
12623;SDS011;6377;42.836;23.998;2023-02-01T06:31:44;84.67;;;47.50;;
12623;SDS011;6377;42.836;23.998;2023-02-01T06:34:12;55.23;;;33.97;;
12623;SDS011;6377;42.836;23.998;2023-02-01T06:36:43;75.40;;;41.33;;
12623;SDS011;6377;42.836;23.998;2023-02-01T06:39:18;75.23;;;42.77;;
12623;SDS011;6377;42.836;23.998;2023-02-01T06:41:46;72.67;;;42.67;;
12623;SDS011;6377;42.836;23.998;2023-02-01T06:44:15;85.57;;;47.03;;
12623;SDS011;6377;42.836;23.998;2023-02-01T06:46:43;82.70;;;45.93;;
12623;SDS011;6377;42.836;23.998;2023-02-01T06:49:14;86.40;;;48.37;;
12623;SDS011;6377;42.836;23.998;2023-02-01T06:51:42;83.23;;;51.10;;
12623;SDS011;6377;42.836;23.998;2023-02-01T06:54:12;106.83;;;60.37;;
12623;SDS011;6377;42.836;23.998;2023-02-01T06:56:44;94.37;;;56.23;;
12623;SDS011;6377;42.836;23.998;2023-02-01T06:59:12;82.23;;;50.97;;
12623;SDS011;6377;42.836;23.998;2023-02-01T07:01:40;85.47;;;49.67;;
12623;SDS011;6377;42.836;23.998;2023-02-01T07:04:09;68.63;;;40.87;;
12623;SDS011;6377;42.836;23.998;2023-02-01T07:06:43;61.40;;;37.63;;
12623;SDS011;6377;42.836;23.998;2023-02-01T07:09:12;71.57;;;39.70;;
12623;SDS011;6377;42.836;23.998;2023-02-01T07:11:40;79.87;;;48.90;;
12623;SDS011;6377;42.836;23.998;2023-02-01T07:14:09;85.87;;;49.13;;
12623;SDS011;6377;42.836;23.998;2023-02-01T07:16:38;87.10;;;51.47;;
12623;SDS011;6377;42.836;23.998;2023-02-01T07:19:06;140.97;;;80.63;;
12623;SDS011;6377;42.836;23.998;2023-02-01T07:21:34;119.40;;;70.70;;
12623;SDS011;6377;42.836;23.998;2023-02-01T07:24:01;119.83;;;69.50;;
12623;SDS011;6377;42.836;23.998;2023-02-01T07:26:31;106.53;;;64.20;;
12623;SDS011;6377;42.836;23.998;2023-02-01T07:28:59;104.53;;;63.03;;
12623;SDS011;6377;42.836;23.998;2023-02-01T07:31:27;102.40;;;61.33;;
12623;SDS011;6377;42.836;23.998;2023-02-01T07:33:54;108.47;;;62.00;;
12623;SDS011;6377;42.836;23.998;2023-02-01T07:36:23;109.93;;;62.50;;
12623;SDS011;6377;42.836;23.998;2023-02-01T07:38:51;103.60;;;60.60;;
12623;SDS011;6377;42.836;23.998;2023-02-01T07:41:19;90.20;;;55.80;;
12623;SDS011;6377;42.836;23.998;2023-02-01T07:43:48;86.67;;;52.03;;
12623;SDS011;6377;42.836;23.998;2023-02-01T07:46:20;108.83;;;61.50;;
12623;SDS011;6377;42.836;23.998;2023-02-01T07:48:47;108.40;;;63.53;;
12623;SDS011;6377;42.836;23.998;2023-02-01T07:51:16;104.27;;;62.27;;
12623;SDS011;6377;42.836;23.998;2023-02-01T07:53:44;162.07;;;84.50;;
12623;SDS011;6377;42.836;23.998;2023-02-01T07:56:13;191.70;;;108.93;;
12623;SDS011;6377;42.836;23.998;2023-02-01T07:58:42;197.47;;;113.27;;
12623;SDS011;6377;42.836;23.998;2023-02-01T08:01:15;174.07;;;103.50;;
12623;SDS011;6377;42.836;23.998;2023-02-01T08:03:45;203.60;;;121.37;;
12623;SDS011;6377;42.836;23.998;2023-02-01T08:06:13;150.10;;;84.33;;
12623;SDS011;6377;42.836;23.998;2023-02-01T08:08:41;143.63;;;81.40;;
12623;SDS011;6377;42.836;23.998;2023-02-01T08:11:12;145.73;;;86.87;;
12623;SDS011;6377;42.836;23.998;2023-02-01T08:13:40;146.97;;;86.27;;
12623;SDS011;6377;42.836;23.998;2023-02-01T08:16:09;139.00;;;82.10;;
12623;SDS011;6377;42.836;23.998;2023-02-01T08:18:39;140.97;;;84.00;;
12623;SDS011;6377;42.836;23.998;2023-02-01T08:21:09;157.57;;;92.80;;
12623;SDS011;6377;42.836;23.998;2023-02-01T08:23:38;145.63;;;87.37;;
12623;SDS011;6377;42.836;23.998;2023-02-01T08:26:07;126.37;;;76.70;;
12623;SDS011;6377;42.836;23.998;2023-02-01T08:28:36;124.50;;;75.80;;
12623;SDS011;6377;42.836;23.998;2023-02-01T08:31:05;102.77;;;63.47;;
12623;SDS011;6377;42.836;23.998;2023-02-01T08:33:33;76.93;;;49.33;;
12623;SDS011;6377;42.836;23.998;2023-02-01T08:36:04;59.67;;;38.20;;
12623;SDS011;6377;42.836;23.998;2023-02-01T08:38:34;92.03;;;56.67;;
12623;SDS011;6377;42.836;23.998;2023-02-01T08:41:05;75.33;;;47.73;;
12623;SDS011;6377;42.836;23.998;2023-02-01T08:43:34;77.90;;;50.80;;
12623;SDS011;6377;42.836;23.998;2023-02-01T08:46:02;100.87;;;60.97;;
12623;SDS011;6377;42.836;23.998;2023-02-01T08:48:31;132.50;;;81.37;;
12623;SDS011;6377;42.836;23.998;2023-02-01T08:51:00;136.07;;;79.97;;
12623;SDS011;6377;42.836;23.998;2023-02-01T08:53:30;127.97;;;76.43;;
12623;SDS011;6377;42.836;23.998;2023-02-01T08:55:58;121.60;;;72.83;;
12623;SDS011;6377;42.836;23.998;2023-02-01T08:58:26;128.77;;;72.83;;
12623;SDS011;6377;42.836;23.998;2023-02-01T09:00:53;122.27;;;75.07;;
12623;SDS011;6377;42.836;23.998;2023-02-01T09:03:21;72.47;;;49.13;;
12623;SDS011;6377;42.836;23.998;2023-02-01T09:05:49;89.20;;;54.77;;
12623;SDS011;6377;42.836;23.998;2023-02-01T09:08:17;89.80;;;56.20;;
12623;SDS011;6377;42.836;23.998;2023-02-01T09:10:47;89.27;;;54.47;;
12623;SDS011;6377;42.836;23.998;2023-02-01T09:13:14;103.93;;;62.13;;
12623;SDS011;6377;42.836;23.998;2023-02-01T09:15:42;123.30;;;72.73;;
12623;SDS011;6377;42.836;23.998;2023-02-01T09:18:10;109.60;;;70.43;;
12623;SDS011;6377;42.836;23.998;2023-02-01T09:20:38;259.40;;;142.53;;
12623;SDS011;6377;42.836;23.998;2023-02-01T09:23:05;222.50;;;123.03;;
12623;SDS011;6377;42.836;23.998;2023-02-01T09:25:33;189.60;;;106.23;;
12623;SDS011;6377;42.836;23.998;2023-02-01T09:28:02;166.57;;;99.53;;
12623;SDS011;6377;42.836;23.998;2023-02-01T09:30:31;190.40;;;114.17;;
12623;SDS011;6377;42.836;23.998;2023-02-01T09:33:00;191.00;;;117.53;;
12623;SDS011;6377;42.836;23.998;2023-02-01T09:35:27;206.20;;;118.37;;
12623;SDS011;6377;42.836;23.998;2023-02-01T09:37:55;183.80;;;105.73;;
12623;SDS011;6377;42.836;23.998;2023-02-01T09:40:23;183.90;;;109.20;;
12623;SDS011;6377;42.836;23.998;2023-02-01T09:43:00;189.00;;;111.50;;
12623;SDS011;6377;42.836;23.998;2023-02-01T09:45:49;166.50;;;100.80;;
12623;SDS011;6377;42.836;23.998;2023-02-01T09:48:27;158.33;;;95.53;;
12623;SDS011;6377;42.836;23.998;2023-02-01T09:50:59;147.83;;;88.73;;
12623;SDS011;6377;42.836;23.998;2023-02-01T09:53:32;192.00;;;90.97;;
12623;SDS011;6377;42.836;23.998;2023-02-01T09:56:05;164.00;;;89.07;;
12623;SDS011;6377;42.836;23.998;2023-02-01T09:58:39;142.10;;;85.20;;
12623;SDS011;6377;42.836;23.998;2023-02-01T10:01:12;132.70;;;78.03;;
12623;SDS011;6377;42.836;23.998;2023-02-01T10:03:43;142.70;;;76.70;;
12623;SDS011;6377;42.836;23.998;2023-02-01T10:06:20;131.13;;;65.33;;
12623;SDS011;6377;42.836;23.998;2023-02-01T10:09:05;397.47;;;127.90;;
12623;SDS011;6377;42.836;23.998;2023-02-01T10:11:44;222.70;;;80.97;;
12623;SDS011;6377;42.836;23.998;2023-02-01T10:14:30;67.00;;;35.80;;
12623;SDS011;6377;42.836;23.998;2023-02-01T10:17:13;45.57;;;27.10;;
12623;SDS011;6377;42.836;23.998;2023-02-01T10:19:52;58.50;;;36.20;;
12623;SDS011;6377;42.836;23.998;2023-02-01T10:22:30;71.60;;;43.63;;
12623;SDS011;6377;42.836;23.998;2023-02-01T10:25:08;46.53;;;30.83;;
12623;SDS011;6377;42.836;23.998;2023-02-01T10:27:45;87.77;;;51.10;;
12623;SDS011;6377;42.836;23.998;2023-02-01T10:30:19;82.10;;;48.77;;
12623;SDS011;6377;42.836;23.998;2023-02-01T10:32:48;40.87;;;25.97;;
12623;SDS011;6377;42.836;23.998;2023-02-01T10:35:22;24.50;;;17.23;;
12623;SDS011;6377;42.836;23.998;2023-02-01T10:37:53;24.10;;;15.33;;
12623;SDS011;6377;42.836;23.998;2023-02-01T10:40:23;30.77;;;16.83;;
12623;SDS011;6377;42.836;23.998;2023-02-01T10:42:52;36.27;;;22.87;;
12623;SDS011;6377;42.836;23.998;2023-02-01T10:45:25;34.07;;;21.27;;
12623;SDS011;6377;42.836;23.998;2023-02-01T10:47:54;63.73;;;39.97;;
12623;SDS011;6377;42.836;23.998;2023-02-01T10:50:28;74.00;;;45.90;;
12623;SDS011;6377;42.836;23.998;2023-02-01T10:53:06;54.93;;;36.70;;
12623;SDS011;6377;42.836;23.998;2023-02-01T10:56:38;52.37;;;36.97;;
12623;SDS011;6377;42.836;23.998;2023-02-01T10:59:14;53.43;;;35.70;;
12623;SDS011;6377;42.836;23.998;2023-02-01T11:01:45;43.40;;;30.27;;
12623;SDS011;6377;42.836;23.998;2023-02-01T11:04:16;55.27;;;34.70;;
12623;SDS011;6377;42.836;23.998;2023-02-01T11:06:45;61.40;;;42.50;;
12623;SDS011;6377;42.836;23.998;2023-02-01T11:09:55;60.67;;;41.70;;
12623;SDS011;6377;42.836;23.998;2023-02-01T11:12:27;62.90;;;42.73;;
12623;SDS011;6377;42.836;23.998;2023-02-01T11:15:15;61.10;;;43.30;;
12623;SDS011;6377;42.836;23.998;2023-02-01T11:17:48;56.27;;;40.83;;
12623;SDS011;6377;42.836;23.998;2023-02-01T11:20:17;53.60;;;34.67;;
12623;SDS011;6377;42.836;23.998;2023-02-01T11:22:47;47.47;;;33.07;;
12623;SDS011;6377;42.836;23.998;2023-02-01T11:25:19;43.37;;;31.83;;
12623;SDS011;6377;42.836;23.998;2023-02-01T11:27:48;40.40;;;29.17;;
12623;SDS011;6377;42.836;23.998;2023-02-01T11:30:18;47.50;;;32.70;;
12623;SDS011;6377;42.836;23.998;2023-02-01T11:32:55;44.23;;;28.93;;
12623;SDS011;6377;42.836;23.998;2023-02-01T11:35:23;44.63;;;31.60;;
12623;SDS011;6377;42.836;23.998;2023-02-01T11:37:53;46.57;;;32.23;;
12623;SDS011;6377;42.836;23.998;2023-02-01T11:40:25;48.50;;;32.17;;
12623;SDS011;6377;42.836;23.998;2023-02-01T11:42:55;51.20;;;35.33;;
12623;SDS011;6377;42.836;23.998;2023-02-01T11:45:26;61.27;;;40.10;;
12623;SDS011;6377;42.836;23.998;2023-02-01T11:47:56;82.47;;;50.57;;
12623;SDS011;6377;42.836;23.998;2023-02-01T11:50:27;76.67;;;47.43;;
12623;SDS011;6377;42.836;23.998;2023-02-01T11:53:02;72.50;;;43.87;;
12623;SDS011;6377;42.836;23.998;2023-02-01T11:55:52;56.73;;;37.73;;
12623;SDS011;6377;42.836;23.998;2023-02-01T11:58:32;52.50;;;33.47;;
12623;SDS011;6377;42.836;23.998;2023-02-01T12:01:18;46.60;;;32.00;;
12623;SDS011;6377;42.836;23.998;2023-02-01T12:04:11;32.47;;;20.17;;
12623;SDS011;6377;42.836;23.998;2023-02-01T12:07:10;21.40;;;14.80;;
12623;SDS011;6377;42.836;23.998;2023-02-01T12:09:46;21.50;;;15.20;;
12623;SDS011;6377;42.836;23.998;2023-02-01T12:12:24;21.50;;;15.80;;
12623;SDS011;6377;42.836;23.998;2023-02-01T12:15:05;37.23;;;23.03;;
12623;SDS011;6377;42.836;23.998;2023-02-01T12:17:47;26.30;;;17.80;;
12623;SDS011;6377;42.836;23.998;2023-02-01T12:20:41;24.60;;;15.00;;
12623;SDS011;6377;42.836;23.998;2023-02-01T12:23:33;22.03;;;13.97;;
12623;SDS011;6377;42.836;23.998;2023-02-01T12:26:20;19.10;;;13.00;;
12623;SDS011;6377;42.836;23.998;2023-02-01T12:29:11;33.57;;;21.73;;
12623;SDS011;6377;42.836;23.998;2023-02-01T12:34:52;15.17;;;10.57;;
12623;SDS011;6377;42.836;23.998;2023-02-01T12:37:39;16.60;;;11.87;;
12623;SDS011;6377;42.836;23.998;2023-02-01T12:40:24;22.90;;;15.17;;
12623;SDS011;6377;42.836;23.998;2023-02-01T12:43:01;31.10;;;23.57;;
12623;SDS011;6377;42.836;23.998;2023-02-01T12:45:36;33.27;;;23.23;;
12623;SDS011;6377;42.836;23.998;2023-02-01T12:48:13;34.13;;;23.23;;
12623;SDS011;6377;42.836;23.998;2023-02-01T12:50:53;38.30;;;24.67;;
12623;SDS011;6377;42.836;23.998;2023-02-01T12:53:26;42.90;;;26.97;;
12623;SDS011;6377;42.836;23.998;2023-02-01T12:56:00;37.57;;;25.00;;
12623;SDS011;6377;42.836;23.998;2023-02-01T12:58:32;34.37;;;22.73;;
12623;SDS011;6377;42.836;23.998;2023-02-01T13:01:11;44.50;;;25.97;;
12623;SDS011;6377;42.836;23.998;2023-02-01T13:03:44;28.07;;;17.33;;
12623;SDS011;6377;42.836;23.998;2023-02-01T13:06:22;21.07;;;14.23;;
12623;SDS011;6377;42.836;23.998;2023-02-01T13:09:00;21.90;;;15.67;;
12623;SDS011;6377;42.836;23.998;2023-02-01T13:17:30;29.27;;;18.93;;
12623;SDS011;6377;42.836;23.998;2023-02-01T13:20:00;24.60;;;16.10;;
12623;SDS011;6377;42.836;23.998;2023-02-01T13:22:34;21.63;;;13.33;;
12623;SDS011;6377;42.836;23.998;2023-02-01T13:25:12;19.93;;;11.57;;
12623;SDS011;6377;42.836;23.998;2023-02-01T13:27:45;18.77;;;12.90;;
12623;SDS011;6377;42.836;23.998;2023-02-01T13:30:15;26.07;;;16.20;;
12623;SDS011;6377;42.836;23.998;2023-02-01T13:32:54;28.20;;;17.10;;
12623;SDS011;6377;42.836;23.998;2023-02-01T13:39:00;21.40;;;14.83;;
12623;SDS011;6377;42.836;23.998;2023-02-01T13:41:52;29.23;;;19.63;;
12623;SDS011;6377;42.836;23.998;2023-02-01T13:44:23;24.83;;;16.37;;
12623;SDS011;6377;42.836;23.998;2023-02-01T13:46:56;45.33;;;30.07;;
12623;SDS011;6377;42.836;23.998;2023-02-01T13:49:27;44.07;;;27.07;;
12623;SDS011;6377;42.836;23.998;2023-02-01T13:51:58;109.07;;;54.60;;
12623;SDS011;6377;42.836;23.998;2023-02-01T13:54:28;499.40;;;166.53;;
12623;SDS011;6377;42.836;23.998;2023-02-01T14:03:07;45.93;;;31.07;;
12623;SDS011;6377;42.836;23.998;2023-02-01T14:09:15;62.17;;;37.37;;
12623;SDS011;6377;42.836;23.998;2023-02-01T14:11:49;598.27;;;233.53;;
12623;SDS011;6377;42.836;23.998;2023-02-01T14:34:21;146.47;;;87.57;;
12623;SDS011;6377;42.836;23.998;2023-02-01T14:40:13;91.60;;;58.70;;
12623;SDS011;6377;42.836;23.998;2023-02-01T14:42:47;86.77;;;50.87;;
12623;SDS011;6377;42.836;23.998;2023-02-01T14:51:17;57.87;;;40.07;;
12623;SDS011;6377;42.836;23.998;2023-02-01T14:53:46;126.90;;;74.13;;
12623;SDS011;6377;42.836;23.998;2023-02-01T14:56:17;73.57;;;51.23;;
12623;SDS011;6377;42.836;23.998;2023-02-01T14:58:48;94.37;;;69.33;;
12623;SDS011;6377;42.836;23.998;2023-02-01T15:01:21;90.40;;;67.87;;
12623;SDS011;6377;42.836;23.998;2023-02-01T15:03:52;84.33;;;57.17;;
12623;SDS011;6377;42.836;23.998;2023-02-01T15:06:26;101.30;;;55.87;;
12623;SDS011;6377;42.836;23.998;2023-02-01T15:08:58;84.23;;;52.17;;
12623;SDS011;6377;42.836;23.998;2023-02-01T15:11:28;80.13;;;47.93;;
12623;SDS011;6377;42.836;23.998;2023-02-01T15:13:56;74.60;;;47.10;;
12623;SDS011;6377;42.836;23.998;2023-02-01T15:16:26;166.83;;;94.57;;
12623;SDS011;6377;42.836;23.998;2023-02-01T15:27:59;111.07;;;62.20;;
12623;SDS011;6377;42.836;23.998;2023-02-01T15:30:27;52.63;;;31.17;;
12623;SDS011;6377;42.836;23.998;2023-02-01T15:33:06;78.37;;;48.27;;
12623;SDS011;6377;42.836;23.998;2023-02-01T15:35:39;77.07;;;48.27;;
12623;SDS011;6377;42.836;23.998;2023-02-01T15:38:20;91.27;;;54.40;;
12623;SDS011;6377;42.836;23.998;2023-02-01T15:41:10;79.63;;;50.47;;
12623;SDS011;6377;42.836;23.998;2023-02-01T15:44:04;74.87;;;49.30;;
12623;SDS011;6377;42.836;23.998;2023-02-01T15:46:40;64.30;;;39.50;;
12623;SDS011;6377;42.836;23.998;2023-02-01T15:49:19;49.73;;;34.87;;
12623;SDS011;6377;42.836;23.998;2023-02-01T15:51:53;76.00;;;47.30;;
12623;SDS011;6377;42.836;23.998;2023-02-01T15:54:24;165.87;;;82.90;;
12623;SDS011;6377;42.836;23.998;2023-02-01T15:56:58;153.00;;;75.87;;
12623;SDS011;6377;42.836;23.998;2023-02-01T15:59:32;184.70;;;89.33;;
12623;SDS011;6377;42.836;23.998;2023-02-01T16:02:32;212.50;;;121.13;;
12623;SDS011;6377;42.836;23.998;2023-02-01T16:07:56;138.97;;;66.67;;